sensor_id;sensor_type;location;lat;lon;timestamp;pressure;altitude;pressure_sealevel;temperature;humidity
77023;BME280;65952;51.440;-2.054;2023-03-01T00:01:46;102009.34;;;4.63;79.25
77023;BME280;65952;51.440;-2.054;2023-03-01T00:04:11;102010.69;;;4.55;80.17
77023;BME280;65952;51.440;-2.054;2023-03-01T00:06:37;102005.00;;;4.46;81.12
77023;BME280;65952;51.440;-2.054;2023-03-01T00:09:03;102014.13;;;4.42;81.93
77023;BME280;65952;51.440;-2.054;2023-03-01T00:11:31;102004.31;;;4.42;82.01
77023;BME280;65952;51.440;-2.054;2023-03-01T00:13:58;102010.31;;;4.46;81.95
77023;BME280;65952;51.440;-2.054;2023-03-01T00:16:29;102000.53;;;4.46;82.08
77023;BME280;65952;51.440;-2.054;2023-03-01T00:18:56;101999.78;;;4.44;82.34
77023;BME280;65952;51.440;-2.054;2023-03-01T00:21:23;102000.47;;;4.48;82.35
77023;BME280;65952;51.440;-2.054;2023-03-01T00:23:49;102008.06;;;4.54;82.21
77023;BME280;65952;51.440;-2.054;2023-03-01T00:26:16;102005.50;;;4.52;82.11
77023;BME280;65952;51.440;-2.054;2023-03-01T00:28:42;102009.88;;;4.53;82.19
77023;BME280;65952;51.440;-2.054;2023-03-01T00:31:13;102008.94;;;4.54;82.03
77023;BME280;65952;51.440;-2.054;2023-03-01T00:33:39;101998.56;;;4.50;82.11
77023;BME280;65952;51.440;-2.054;2023-03-01T00:36:05;102003.19;;;4.46;82.37
77023;BME280;65952;51.440;-2.054;2023-03-01T00:38:35;102009.63;;;4.42;82.36
77023;BME280;65952;51.440;-2.054;2023-03-01T00:41:08;102005.16;;;4.43;82.36
77023;BME280;65952;51.440;-2.054;2023-03-01T00:43:34;101996.34;;;4.42;81.96
77023;BME280;65952;51.440;-2.054;2023-03-01T00:46:09;101994.13;;;4.50;81.73
77023;BME280;65952;51.440;-2.054;2023-03-01T00:48:35;101987.00;;;4.35;82.12
77023;BME280;65952;51.440;-2.054;2023-03-01T00:51:23;101997.22;;;4.27;82.33
77023;BME280;65952;51.440;-2.054;2023-03-01T00:53:57;101997.97;;;4.29;81.95
77023;BME280;65952;51.440;-2.054;2023-03-01T00:56:23;101996.63;;;4.21;82.26
77023;BME280;65952;51.440;-2.054;2023-03-01T00:58:49;101995.72;;;4.21;82.17
77023;BME280;65952;51.440;-2.054;2023-03-01T01:01:17;102005.16;;;4.11;82.28
77023;BME280;65952;51.440;-2.054;2023-03-01T01:04:05;101996.94;;;4.15;82.34
77023;BME280;65952;51.440;-2.054;2023-03-01T01:06:36;101991.44;;;4.18;82.44
77023;BME280;65952;51.440;-2.054;2023-03-01T01:09:03;101990.41;;;4.21;82.49
77023;BME280;65952;51.440;-2.054;2023-03-01T01:11:30;101992.66;;;4.13;82.91
77023;BME280;65952;51.440;-2.054;2023-03-01T01:13:56;101982.69;;;4.16;82.66
77023;BME280;65952;51.440;-2.054;2023-03-01T01:16:23;101983.47;;;4.18;82.60
77023;BME280;65952;51.440;-2.054;2023-03-01T01:18:50;101980.66;;;4.21;82.22
77023;BME280;65952;51.440;-2.054;2023-03-01T01:21:18;101994.19;;;4.17;82.37
77023;BME280;65952;51.440;-2.054;2023-03-01T01:23:45;101989.56;;;4.20;82.01
77023;BME280;65952;51.440;-2.054;2023-03-01T01:28:40;101984.41;;;4.17;81.80
77023;BME280;65952;51.440;-2.054;2023-03-01T01:31:06;101991.44;;;4.02;82.19
77023;BME280;65952;51.440;-2.054;2023-03-01T01:33:32;101992.13;;;4.06;81.83
77023;BME280;65952;51.440;-2.054;2023-03-01T01:35:58;101996.75;;;4.02;81.76
77023;BME280;65952;51.440;-2.054;2023-03-01T01:38:24;101982.78;;;3.99;81.80
77023;BME280;65952;51.440;-2.054;2023-03-01T01:40:50;101987.75;;;3.89;81.97
77023;BME280;65952;51.440;-2.054;2023-03-01T01:43:28;101985.50;;;3.97;81.50
77023;BME280;65952;51.440;-2.054;2023-03-01T01:46:03;101987.47;;;3.94;81.29
77023;BME280;65952;51.440;-2.054;2023-03-01T01:48:38;101985.09;;;3.89;81.19
77023;BME280;65952;51.440;-2.054;2023-03-01T01:51:07;101992.19;;;3.88;81.15
77023;BME280;65952;51.440;-2.054;2023-03-01T01:53:35;101979.44;;;3.95;81.15
77023;BME280;65952;51.440;-2.054;2023-03-01T01:56:02;101975.22;;;3.91;81.18
77023;BME280;65952;51.440;-2.054;2023-03-01T01:58:29;101973.53;;;3.90;81.21
77023;BME280;65952;51.440;-2.054;2023-03-01T02:00:55;101963.50;;;3.95;80.88
77023;BME280;65952;51.440;-2.054;2023-03-01T02:03:27;101962.81;;;3.92;81.00
77023;BME280;65952;51.440;-2.054;2023-03-01T02:06:03;101955.75;;;3.90;80.99
77023;BME280;65952;51.440;-2.054;2023-03-01T02:08:32;101951.63;;;3.85;81.17
77023;BME280;65952;51.440;-2.054;2023-03-01T02:10:59;101954.22;;;3.86;80.96
77023;BME280;65952;51.440;-2.054;2023-03-01T02:13:25;101955.16;;;3.85;81.02
77023;BME280;65952;51.440;-2.054;2023-03-01T02:15:50;101950.00;;;3.82;81.23
77023;BME280;65952;51.440;-2.054;2023-03-01T02:18:18;101943.84;;;3.82;81.15
77023;BME280;65952;51.440;-2.054;2023-03-01T02:23:15;101935.44;;;3.89;80.86
77023;BME280;65952;51.440;-2.054;2023-03-01T02:26:01;101945.06;;;3.76;81.33
77023;BME280;65952;51.440;-2.054;2023-03-01T02:28:35;101926.28;;;3.79;81.27
77023;BME280;65952;51.440;-2.054;2023-03-01T02:31:02;101925.50;;;3.77;81.24
77023;BME280;65952;51.440;-2.054;2023-03-01T02:33:47;101926.69;;;3.71;81.47
77023;BME280;65952;51.440;-2.054;2023-03-01T02:36:19;101925.44;;;3.79;81.42
77023;BME280;65952;51.440;-2.054;2023-03-01T02:38:46;101928.16;;;3.77;81.47
77023;BME280;65952;51.440;-2.054;2023-03-01T02:41:15;101917.78;;;3.72;81.39
77023;BME280;65952;51.440;-2.054;2023-03-01T02:43:41;101922.91;;;3.76;81.57
77023;BME280;65952;51.440;-2.054;2023-03-01T02:46:13;101927.81;;;3.67;81.60
77023;BME280;65952;51.440;-2.054;2023-03-01T02:48:45;101925.22;;;3.66;81.65
77023;BME280;65952;51.440;-2.054;2023-03-01T02:56:23;101921.91;;;3.45;82.19
77023;BME280;65952;51.440;-2.054;2023-03-01T02:58:48;101917.81;;;3.39;82.21
77023;BME280;65952;51.440;-2.054;2023-03-01T03:01:18;101917.19;;;3.34;82.23
77023;BME280;65952;51.440;-2.054;2023-03-01T03:03:43;101912.66;;;3.36;82.54
77023;BME280;65952;51.440;-2.054;2023-03-01T03:06:09;101909.94;;;3.37;82.32
77023;BME280;65952;51.440;-2.054;2023-03-01T03:08:34;101908.63;;;3.45;82.06
77023;BME280;65952;51.440;-2.054;2023-03-01T03:11:00;101904.81;;;3.50;81.88
77023;BME280;65952;51.440;-2.054;2023-03-01T03:13:25;101898.56;;;3.51;81.78
77023;BME280;65952;51.440;-2.054;2023-03-01T03:15:54;101905.59;;;3.52;81.74
77023;BME280;65952;51.440;-2.054;2023-03-01T03:18:21;101902.63;;;3.58;81.75
77023;BME280;65952;51.440;-2.054;2023-03-01T03:20:46;101905.25;;;3.58;81.74
77023;BME280;65952;51.440;-2.054;2023-03-01T03:23:12;101895.41;;;3.61;81.63
77023;BME280;65952;51.440;-2.054;2023-03-01T03:25:38;101896.66;;;3.53;81.94
77023;BME280;65952;51.440;-2.054;2023-03-01T03:28:04;101892.13;;;3.55;82.09
77023;BME280;65952;51.440;-2.054;2023-03-01T03:30:36;101889.16;;;3.62;81.83
77023;BME280;65952;51.440;-2.054;2023-03-01T03:33:05;101884.00;;;3.74;81.15
77023;BME280;65952;51.440;-2.054;2023-03-01T03:35:34;101891.03;;;3.76;81.10
77023;BME280;65952;51.440;-2.054;2023-03-01T03:38:03;101881.94;;;3.80;81.21
77023;BME280;65952;51.440;-2.054;2023-03-01T03:40:44;101887.63;;;3.89;80.74
77023;BME280;65952;51.440;-2.054;2023-03-01T03:43:14;101890.47;;;3.86;80.84
77023;BME280;65952;51.440;-2.054;2023-03-01T03:45:39;101888.41;;;3.92;81.01
77023;BME280;65952;51.440;-2.054;2023-03-01T03:48:07;101885.84;;;3.90;80.82
77023;BME280;65952;51.440;-2.054;2023-03-01T03:50:33;101884.81;;;3.93;81.00
77023;BME280;65952;51.440;-2.054;2023-03-01T03:53:00;101880.84;;;4.00;80.78
77023;BME280;65952;51.440;-2.054;2023-03-01T03:55:26;101887.88;;;4.17;79.87
77023;BME280;65952;51.440;-2.054;2023-03-01T03:57:57;101882.06;;;4.10;80.07
77023;BME280;65952;51.440;-2.054;2023-03-01T04:00:23;101893.34;;;4.14;79.66
77023;BME280;65952;51.440;-2.054;2023-03-01T04:02:49;101877.41;;;4.14;79.50
77023;BME280;65952;51.440;-2.054;2023-03-01T04:05:17;101873.91;;;4.13;79.50
77023;BME280;65952;51.440;-2.054;2023-03-01T04:07:43;101867.09;;;4.23;79.37
77023;BME280;65952;51.440;-2.054;2023-03-01T04:10:14;101866.00;;;4.28;79.04
77023;BME280;65952;51.440;-2.054;2023-03-01T04:12:40;101865.38;;;4.22;79.06
77023;BME280;65952;51.440;-2.054;2023-03-01T04:15:07;101856.47;;;4.23;79.04
77023;BME280;65952;51.440;-2.054;2023-03-01T04:17:44;101853.13;;;4.20;78.72
77023;BME280;65952;51.440;-2.054;2023-03-01T04:20:12;101863.34;;;4.12;79.17
77023;BME280;65952;51.440;-2.054;2023-03-01T04:22:39;101857.16;;;4.11;78.94
77023;BME280;65952;51.440;-2.054;2023-03-01T04:25:05;101858.47;;;4.04;79.08
77023;BME280;65952;51.440;-2.054;2023-03-01T04:27:33;101846.72;;;4.08;78.81
77023;BME280;65952;51.440;-2.054;2023-03-01T04:29:59;101849.47;;;4.06;78.50
77023;BME280;65952;51.440;-2.054;2023-03-01T04:32:24;101856.84;;;4.01;78.40
77023;BME280;65952;51.440;-2.054;2023-03-01T04:34:49;101851.19;;;4.07;77.91
77023;BME280;65952;51.440;-2.054;2023-03-01T04:37:15;101854.75;;;4.22;77.42
77023;BME280;65952;51.440;-2.054;2023-03-01T04:39:41;101858.28;;;4.23;77.20
77023;BME280;65952;51.440;-2.054;2023-03-01T04:42:11;101858.97;;;4.27;76.51
77023;BME280;65952;51.440;-2.054;2023-03-01T04:44:37;101859.91;;;4.26;76.85
77023;BME280;65952;51.440;-2.054;2023-03-01T04:47:02;101859.91;;;4.26;76.46
77023;BME280;65952;51.440;-2.054;2023-03-01T04:49:28;101858.97;;;4.27;76.14
77023;BME280;65952;51.440;-2.054;2023-03-01T04:51:53;101847.88;;;4.34;75.92
77023;BME280;65952;51.440;-2.054;2023-03-01T04:54:19;101857.47;;;4.37;75.75
77023;BME280;65952;51.440;-2.054;2023-03-01T04:56:44;101850.53;;;4.34;75.89
77023;BME280;65952;51.440;-2.054;2023-03-01T04:59:10;101847.69;;;4.37;75.59
77023;BME280;65952;51.440;-2.054;2023-03-01T05:01:38;101839.13;;;4.32;75.20
77023;BME280;65952;51.440;-2.054;2023-03-01T05:04:03;101847.00;;;4.34;75.48
77023;BME280;65952;51.440;-2.054;2023-03-01T05:06:30;101850.28;;;4.39;75.12
77023;BME280;65952;51.440;-2.054;2023-03-01T05:08:56;101853.88;;;4.38;75.22
77023;BME280;65952;51.440;-2.054;2023-03-01T05:11:22;101849.50;;;4.37;75.58
77023;BME280;65952;51.440;-2.054;2023-03-01T05:13:47;101842.81;;;4.30;76.32
77023;BME280;65952;51.440;-2.054;2023-03-01T05:16:15;101845.22;;;4.34;76.37
77023;BME280;65952;51.440;-2.054;2023-03-01T05:18:42;101841.44;;;4.38;76.31
77023;BME280;65952;51.440;-2.054;2023-03-01T05:21:10;101831.00;;;4.19;77.02
77023;BME280;65952;51.440;-2.054;2023-03-01T05:23:38;101829.78;;;4.25;77.38
77023;BME280;65952;51.440;-2.054;2023-03-01T05:26:05;101827.13;;;4.25;77.43
77023;BME280;65952;51.440;-2.054;2023-03-01T05:28:31;101833.81;;;4.32;77.33
77023;BME280;65952;51.440;-2.054;2023-03-01T05:30:57;101832.59;;;4.38;77.13
77023;BME280;65952;51.440;-2.054;2023-03-01T05:33:23;101831.47;;;4.42;77.01
77023;BME280;65952;51.440;-2.054;2023-03-01T05:35:49;101826.47;;;4.21;77.72
77023;BME280;65952;51.440;-2.054;2023-03-01T05:38:17;101833.41;;;4.24;78.03
77023;BME280;65952;51.440;-2.054;2023-03-01T05:40:43;101829.72;;;4.27;78.06
77023;BME280;65952;51.440;-2.054;2023-03-01T05:43:09;101833.47;;;4.22;78.13
77023;BME280;65952;51.440;-2.054;2023-03-01T05:45:37;101828.16;;;4.22;78.32
77023;BME280;65952;51.440;-2.054;2023-03-01T05:48:03;101824.56;;;4.23;78.53
77023;BME280;65952;51.440;-2.054;2023-03-01T05:50:32;101822.50;;;4.29;78.38
77023;BME280;65952;51.440;-2.054;2023-03-01T05:53:01;101823.03;;;4.19;78.98
77023;BME280;65952;51.440;-2.054;2023-03-01T05:55:28;101820.19;;;4.22;78.96
77023;BME280;65952;51.440;-2.054;2023-03-01T05:57:54;101820.97;;;4.25;78.95
77023;BME280;65952;51.440;-2.054;2023-03-01T06:00:20;101819.25;;;4.23;78.89
77023;BME280;65952;51.440;-2.054;2023-03-01T06:02:49;101819.59;;;4.17;79.31
77023;BME280;65952;51.440;-2.054;2023-03-01T06:05:15;101816.00;;;4.18;78.97
77023;BME280;65952;51.440;-2.054;2023-03-01T06:07:41;101822.44;;;4.14;79.45
77023;BME280;65952;51.440;-2.054;2023-03-01T06:10:07;101832.75;;;4.04;80.07
77023;BME280;65952;51.440;-2.054;2023-03-01T06:12:35;101823.16;;;4.02;80.88
77023;BME280;65952;51.440;-2.054;2023-03-01T06:15:01;101827.19;;;4.09;80.57
77023;BME280;65952;51.440;-2.054;2023-03-01T06:17:32;101818.28;;;4.10;81.47
77023;BME280;65952;51.440;-2.054;2023-03-01T06:19:57;101821.19;;;4.05;81.90
77023;BME280;65952;51.440;-2.054;2023-03-01T06:22:23;101822.38;;;4.00;82.46
77023;BME280;65952;51.440;-2.054;2023-03-01T06:24:48;101820.84;;;3.96;82.54
77023;BME280;65952;51.440;-2.054;2023-03-01T06:27:14;101817.41;;;3.94;82.90
77023;BME280;65952;51.440;-2.054;2023-03-01T06:29:39;101820.06;;;3.94;83.51
77023;BME280;65952;51.440;-2.054;2023-03-01T06:32:05;101822.72;;;3.94;83.70
77023;BME280;65952;51.440;-2.054;2023-03-01T06:34:30;101823.84;;;3.89;83.74
77023;BME280;65952;51.440;-2.054;2023-03-01T06:36:56;101828.81;;;3.96;83.63
77023;BME280;65952;51.440;-2.054;2023-03-01T06:39:21;101834.13;;;3.96;83.58
77023;BME280;65952;51.440;-2.054;2023-03-01T06:41:47;101830.44;;;3.98;83.34
77023;BME280;65952;51.440;-2.054;2023-03-01T06:44:12;101834.72;;;4.01;83.30
77023;BME280;65952;51.440;-2.054;2023-03-01T06:46:39;101840.63;;;4.06;83.33
77023;BME280;65952;51.440;-2.054;2023-03-01T06:49:05;101838.31;;;4.00;83.81
77023;BME280;65952;51.440;-2.054;2023-03-01T06:51:35;101845.88;;;4.07;83.42
77023;BME280;65952;51.440;-2.054;2023-03-01T06:54:00;101836.78;;;3.96;83.81
77023;BME280;65952;51.440;-2.054;2023-03-01T06:56:26;101841.66;;;4.03;83.37
77023;BME280;65952;51.440;-2.054;2023-03-01T06:58:51;101840.03;;;4.01;83.95
77023;BME280;65952;51.440;-2.054;2023-03-01T07:01:16;101845.88;;;3.92;84.20
77023;BME280;65952;51.440;-2.054;2023-03-01T07:03:42;101846.81;;;4.06;84.23
77023;BME280;65952;51.440;-2.054;2023-03-01T07:06:09;101844.31;;;4.03;84.35
77023;BME280;65952;51.440;-2.054;2023-03-01T07:08:35;101848.94;;;4.00;84.43
77023;BME280;65952;51.440;-2.054;2023-03-01T07:11:00;101847.16;;;4.00;84.44
77023;BME280;65952;51.440;-2.054;2023-03-01T07:13:27;101845.25;;;4.02;84.66
77023;BME280;65952;51.440;-2.054;2023-03-01T07:15:53;101849.13;;;3.97;84.57
77023;BME280;65952;51.440;-2.054;2023-03-01T07:18:18;101847.31;;;3.97;84.72
77023;BME280;65952;51.440;-2.054;2023-03-01T07:20:43;101853.66;;;4.11;84.45
77023;BME280;65952;51.440;-2.054;2023-03-01T07:23:09;101846.03;;;4.04;84.40
77023;BME280;65952;51.440;-2.054;2023-03-01T07:25:35;101843.63;;;4.00;84.80
77023;BME280;65952;51.440;-2.054;2023-03-01T07:28:00;101853.50;;;3.98;84.71
77023;BME280;65952;51.440;-2.054;2023-03-01T07:30:26;101853.06;;;4.05;84.21
77023;BME280;65952;51.440;-2.054;2023-03-01T07:32:54;101850.16;;;4.10;83.89
77023;BME280;65952;51.440;-2.054;2023-03-01T07:35:20;101858.63;;;4.17;83.60
77023;BME280;65952;51.440;-2.054;2023-03-01T07:37:45;101862.13;;;4.17;83.25
77023;BME280;65952;51.440;-2.054;2023-03-01T07:40:12;101862.91;;;4.19;82.94
77023;BME280;65952;51.440;-2.054;2023-03-01T07:42:37;101869.59;;;4.27;82.79
77023;BME280;65952;51.440;-2.054;2023-03-01T07:45:04;101867.75;;;4.43;82.24
77023;BME280;65952;51.440;-2.054;2023-03-01T07:47:30;101861.97;;;4.51;81.50
77023;BME280;65952;51.440;-2.054;2023-03-01T07:49:55;101859.91;;;4.56;81.12
77023;BME280;65952;51.440;-2.054;2023-03-01T07:52:21;101862.47;;;4.58;80.63
77023;BME280;65952;51.440;-2.054;2023-03-01T07:54:46;101852.03;;;4.54;80.21
77023;BME280;65952;51.440;-2.054;2023-03-01T07:57:12;101853.59;;;4.73;79.59
77023;BME280;65952;51.440;-2.054;2023-03-01T07:59:37;101853.09;;;4.66;79.47
77023;BME280;65952;51.440;-2.054;2023-03-01T08:02:03;101862.31;;;4.75;79.71
77023;BME280;65952;51.440;-2.054;2023-03-01T08:04:28;101867.25;;;4.67;79.38
77023;BME280;65952;51.440;-2.054;2023-03-01T08:06:54;101867.88;;;4.56;80.00
77023;BME280;65952;51.440;-2.054;2023-03-01T08:09:20;101869.94;;;4.67;80.03
77023;BME280;65952;51.440;-2.054;2023-03-01T08:11:46;101854.91;;;4.80;79.23
77023;BME280;65952;51.440;-2.054;2023-03-01T08:14:11;101854.19;;;4.93;78.69
77023;BME280;65952;51.440;-2.054;2023-03-01T08:16:37;101861.31;;;5.07;78.63
77023;BME280;65952;51.440;-2.054;2023-03-01T08:19:07;101862.28;;;5.34;77.76
77023;BME280;65952;51.440;-2.054;2023-03-01T08:21:33;101856.00;;;5.50;76.87
77023;BME280;65952;51.440;-2.054;2023-03-01T08:24:00;101855.91;;;5.37;76.58
77023;BME280;65952;51.440;-2.054;2023-03-01T08:26:26;101864.34;;;4.86;77.48
77023;BME280;65952;51.440;-2.054;2023-03-01T08:28:51;101861.59;;;4.87;78.21
77023;BME280;65952;51.440;-2.054;2023-03-01T08:31:21;101855.31;;;4.88;78.51
77023;BME280;65952;51.440;-2.054;2023-03-01T08:33:49;101856.28;;;5.16;77.46
77023;BME280;65952;51.440;-2.054;2023-03-01T08:36:24;101847.16;;;5.35;76.71
77023;BME280;65952;51.440;-2.054;2023-03-01T08:38:52;101847.72;;;5.26;76.38
77023;BME280;65952;51.440;-2.054;2023-03-01T08:41:17;101845.06;;;5.11;77.26
77023;BME280;65952;51.440;-2.054;2023-03-01T08:43:43;101852.13;;;5.12;77.52
77023;BME280;65952;51.440;-2.054;2023-03-01T08:46:09;101854.94;;;5.09;77.68
77023;BME280;65952;51.440;-2.054;2023-03-01T08:48:35;101846.69;;;4.99;78.71
77023;BME280;65952;51.440;-2.054;2023-03-01T08:51:16;101853.72;;;4.86;79.12
77023;BME280;65952;51.440;-2.054;2023-03-01T08:53:42;101844.22;;;4.82;79.39
77023;BME280;65952;51.440;-2.054;2023-03-01T08:56:08;101850.41;;;5.11;79.56
77023;BME280;65952;51.440;-2.054;2023-03-01T08:58:34;101841.84;;;5.20;78.99
77023;BME280;65952;51.440;-2.054;2023-03-01T09:01:00;101844.41;;;4.93;79.32
77023;BME280;65952;51.440;-2.054;2023-03-01T09:03:26;101844.97;;;4.98;79.74
77023;BME280;65952;51.440;-2.054;2023-03-01T09:05:53;101842.41;;;5.11;79.70
77023;BME280;65952;51.440;-2.054;2023-03-01T09:08:19;101837.06;;;4.97;79.12
77023;BME280;65952;51.440;-2.054;2023-03-01T09:10:44;101843.84;;;4.88;79.88
77023;BME280;65952;51.440;-2.054;2023-03-01T09:13:10;101840.88;;;4.78;79.53
77023;BME280;65952;51.440;-2.054;2023-03-01T09:15:38;101842.19;;;4.85;79.69
77023;BME280;65952;51.440;-2.054;2023-03-01T09:18:04;101850.78;;;4.91;79.09
77023;BME280;65952;51.440;-2.054;2023-03-01T09:20:31;101851.34;;;4.96;78.99
77023;BME280;65952;51.440;-2.054;2023-03-01T09:22:57;101842.59;;;4.94;78.18
77023;BME280;65952;51.440;-2.054;2023-03-01T09:25:23;101840.31;;;5.16;78.09
77023;BME280;65952;51.440;-2.054;2023-03-01T09:27:52;101838.66;;;5.57;76.73
77023;BME280;65952;51.440;-2.054;2023-03-01T09:30:18;101828.81;;;7.31;70.19
77023;BME280;65952;51.440;-2.054;2023-03-01T09:32:43;101822.72;;;8.04;67.78
77023;BME280;65952;51.440;-2.054;2023-03-01T09:35:10;101814.03;;;9.18;64.29
77023;BME280;65952;51.440;-2.054;2023-03-01T09:37:36;101812.63;;;10.34;58.02
77023;BME280;65952;51.440;-2.054;2023-03-01T09:40:04;101807.44;;;9.34;60.41
77023;BME280;65952;51.440;-2.054;2023-03-01T09:42:33;101801.66;;;9.72;60.63
77023;BME280;65952;51.440;-2.054;2023-03-01T09:45:11;101808.84;;;8.70;62.48
77023;BME280;65952;51.440;-2.054;2023-03-01T09:47:37;101819.81;;;7.45;66.62
77023;BME280;65952;51.440;-2.054;2023-03-01T09:50:20;101813.25;;;6.61;69.48
77023;BME280;65952;51.440;-2.054;2023-03-01T09:53:00;101798.25;;;6.32;70.50
77023;BME280;65952;51.440;-2.054;2023-03-01T09:55:43;101803.00;;;6.01;71.90
77023;BME280;65952;51.440;-2.054;2023-03-01T10:01:32;101789.34;;;9.70;61.45
77023;BME280;65952;51.440;-2.054;2023-03-01T10:04:09;101784.63;;;11.00;57.79
77023;BME280;65952;51.440;-2.054;2023-03-01T10:06:39;101780.34;;;11.79;55.25
77023;BME280;65952;51.440;-2.054;2023-03-01T10:09:16;101772.19;;;13.15;50.64
77023;BME280;65952;51.440;-2.054;2023-03-01T10:11:43;101765.75;;;12.50;48.96
77023;BME280;65952;51.440;-2.054;2023-03-01T10:16:56;101778.09;;;8.40;62.02
77023;BME280;65952;51.440;-2.054;2023-03-01T10:19:36;101779.03;;;7.68;64.39
77023;BME280;65952;51.440;-2.054;2023-03-01T10:22:19;101780.47;;;6.85;67.10
77023;BME280;65952;51.440;-2.054;2023-03-01T10:24:46;101778.97;;;6.80;68.65
77023;BME280;65952;51.440;-2.054;2023-03-01T10:27:19;101779.28;;;6.50;69.15
77023;BME280;65952;51.440;-2.054;2023-03-01T10:29:59;101773.06;;;6.24;69.74
77023;BME280;65952;51.440;-2.054;2023-03-01T10:32:26;101768.06;;;5.92;70.65
77023;BME280;65952;51.440;-2.054;2023-03-01T10:34:52;101774.16;;;5.94;72.01
77023;BME280;65952;51.440;-2.054;2023-03-01T10:37:19;101771.88;;;6.15;71.89
77023;BME280;65952;51.440;-2.054;2023-03-01T10:40:07;101763.03;;;7.79;67.54
77023;BME280;65952;51.440;-2.054;2023-03-01T10:42:39;101750.16;;;9.46;62.46
77023;BME280;65952;51.440;-2.054;2023-03-01T10:47:44;101748.84;;;9.18;61.20
77023;BME280;65952;51.440;-2.054;2023-03-01T10:50:21;101763.31;;;7.87;65.11
77023;BME280;65952;51.440;-2.054;2023-03-01T10:53:02;101763.50;;;7.48;67.89
77023;BME280;65952;51.440;-2.054;2023-03-01T10:55:35;101754.94;;;7.06;69.43
77023;BME280;65952;51.440;-2.054;2023-03-01T10:58:21;101760.94;;;6.58;70.41
77023;BME280;65952;51.440;-2.054;2023-03-01T11:00:52;101756.41;;;7.10;70.23
77023;BME280;65952;51.440;-2.054;2023-03-01T11:03:30;101754.22;;;7.65;70.49
77023;BME280;65952;51.440;-2.054;2023-03-01T11:05:59;101745.53;;;7.75;69.04
77023;BME280;65952;51.440;-2.054;2023-03-01T11:08:36;101751.06;;;7.10;70.37
77023;BME280;65952;51.440;-2.054;2023-03-01T11:11:25;101743.84;;;6.87;72.41
77023;BME280;65952;51.440;-2.054;2023-03-01T11:14:16;101736.47;;;6.90;72.54
77023;BME280;65952;51.440;-2.054;2023-03-01T11:16:45;101743.75;;;6.75;72.05
77023;BME280;65952;51.440;-2.054;2023-03-01T11:21:38;101729.75;;;6.85;72.39
77023;BME280;65952;51.440;-2.054;2023-03-01T11:24:10;101729.13;;;7.55;71.63
77023;BME280;65952;51.440;-2.054;2023-03-01T11:26:41;101716.56;;;7.93;68.81
77023;BME280;65952;51.440;-2.054;2023-03-01T11:29:16;101724.19;;;7.62;68.25
77023;BME280;65952;51.440;-2.054;2023-03-01T11:31:43;101722.59;;;7.35;69.58
77023;BME280;65952;51.440;-2.054;2023-03-01T11:34:16;101710.06;;;7.36;69.63
77023;BME280;65952;51.440;-2.054;2023-03-01T11:36:49;101702.50;;;7.29;69.31
77023;BME280;65952;51.440;-2.054;2023-03-01T11:41:51;101699.91;;;7.65;69.67
77023;BME280;65952;51.440;-2.054;2023-03-01T11:44:23;101693.53;;;7.79;68.63
77023;BME280;65952;51.440;-2.054;2023-03-01T11:52:39;101686.72;;;7.51;68.22
77023;BME280;65952;51.440;-2.054;2023-03-01T12:04:11;101673.34;;;6.89;70.03
77023;BME280;65952;51.440;-2.054;2023-03-01T12:12:33;101667.31;;;7.11;68.12
77023;BME280;65952;51.440;-2.054;2023-03-01T12:15:47;101666.22;;;6.90;69.38
77023;BME280;65952;51.440;-2.054;2023-03-01T12:26:30;101646.19;;;7.08;69.09
77023;BME280;65952;51.440;-2.054;2023-03-01T12:39:55;101637.19;;;7.09;68.67
77023;BME280;65952;51.440;-2.054;2023-03-01T12:50:58;101617.56;;;7.35;69.69
77023;BME280;65952;51.440;-2.054;2023-03-01T12:53:28;101602.09;;;7.62;69.42
77023;BME280;65952;51.440;-2.054;2023-03-01T12:55:59;101600.03;;;7.55;67.76
77023;BME280;65952;51.440;-2.054;2023-03-01T12:58:54;101592.88;;;7.31;68.23
77023;BME280;65952;51.440;-2.054;2023-03-01T13:09:39;101571.38;;;7.68;67.71
77023;BME280;65952;51.440;-2.054;2023-03-01T13:17:54;101550.91;;;8.03;66.10
77023;BME280;65952;51.440;-2.054;2023-03-01T13:23:13;101545.91;;;7.98;64.49
77023;BME280;65952;51.440;-2.054;2023-03-01T13:26:10;101532.38;;;7.88;65.28
77023;BME280;65952;51.440;-2.054;2023-03-01T13:28:53;101529.00;;;7.97;66.76
77023;BME280;65952;51.440;-2.054;2023-03-01T13:33:53;101533.59;;;7.73;67.37
77023;BME280;65952;51.440;-2.054;2023-03-01T13:36:48;101525.22;;;7.77;68.48
77023;BME280;65952;51.440;-2.054;2023-03-01T13:41:51;101518.84;;;7.44;67.65
77023;BME280;65952;51.440;-2.054;2023-03-01T13:49:58;101505.38;;;7.46;67.86
77023;BME280;65952;51.440;-2.054;2023-03-01T13:52:43;101516.06;;;7.46;68.21
77023;BME280;65952;51.440;-2.054;2023-03-01T13:55:46;101513.31;;;7.70;68.28
77023;BME280;65952;51.440;-2.054;2023-03-01T13:58:30;101500.69;;;7.95;67.41
77023;BME280;65952;51.440;-2.054;2023-03-01T14:01:04;101512.34;;;7.83;65.79
77023;BME280;65952;51.440;-2.054;2023-03-01T14:03:32;101496.78;;;7.99;66.99
77023;BME280;65952;51.440;-2.054;2023-03-01T14:06:02;101497.16;;;7.94;66.55
77023;BME280;65952;51.440;-2.054;2023-03-01T14:08:30;101484.03;;;7.69;65.65
77023;BME280;65952;51.440;-2.054;2023-03-01T14:13:59;101471.94;;;8.31;64.06
77023;BME280;65952;51.440;-2.054;2023-03-01T14:19:18;101478.88;;;8.34;64.85
77023;BME280;65952;51.440;-2.054;2023-03-01T14:21:46;101485.81;;;7.57;68.69
77023;BME280;65952;51.440;-2.054;2023-03-01T14:24:20;101489.75;;;7.17;71.31
77023;BME280;65952;51.440;-2.054;2023-03-01T14:26:47;101488.78;;;6.82;73.10
77023;BME280;65952;51.440;-2.054;2023-03-01T14:29:25;101491.94;;;6.39;74.15
77023;BME280;65952;51.440;-2.054;2023-03-01T14:31:51;101481.53;;;6.60;75.48
77023;BME280;65952;51.440;-2.054;2023-03-01T14:34:22;101470.94;;;6.59;74.93
77023;BME280;65952;51.440;-2.054;2023-03-01T14:36:49;101479.31;;;6.54;74.46
77023;BME280;65952;51.440;-2.054;2023-03-01T14:39:24;101481.47;;;6.73;73.84
77023;BME280;65952;51.440;-2.054;2023-03-01T14:41:51;101475.41;;;6.82;74.16
77023;BME280;65952;51.440;-2.054;2023-03-01T14:44:23;101467.75;;;6.78;73.35
77023;BME280;65952;51.440;-2.054;2023-03-01T14:46:53;101464.16;;;6.90;73.22